sensor_id;sensor_type;location;lat;lon;timestamp;P1;durP1;ratioP1;P2;durP2;ratioP2
50932;SDS011;36921;49.006;9.292;2023-04-15T00:02:18;9.65;;;4.72;;
50932;SDS011;36921;49.006;9.292;2023-04-15T00:04:44;11.57;;;4.60;;
50932;SDS011;36921;49.006;9.292;2023-04-15T00:07:10;8.70;;;3.95;;
50932;SDS011;36921;49.006;9.292;2023-04-15T00:09:36;8.65;;;4.63;;
50932;SDS011;36921;49.006;9.292;2023-04-15T00:12:01;10.75;;;5.32;;
50932;SDS011;36921;49.006;9.292;2023-04-15T00:14:27;11.25;;;4.10;;
50932;SDS011;36921;49.006;9.292;2023-04-15T00:16:52;6.90;;;4.10;;
50932;SDS011;36921;49.006;9.292;2023-04-15T00:19:20;8.77;;;3.53;;
50932;SDS011;36921;49.006;9.292;2023-04-15T00:21:45;5.80;;;3.20;;
50932;SDS011;36921;49.006;9.292;2023-04-15T00:24:11;6.97;;;3.83;;
50932;SDS011;36921;49.006;9.292;2023-04-15T00:26:37;7.20;;;3.90;;
50932;SDS011;36921;49.006;9.292;2023-04-15T00:29:02;9.95;;;3.40;;
50932;SDS011;36921;49.006;9.292;2023-04-15T00:31:28;12.38;;;3.55;;
50932;SDS011;36921;49.006;9.292;2023-04-15T00:33:54;11.30;;;3.33;;
50932;SDS011;36921;49.006;9.292;2023-04-15T00:36:19;14.02;;;3.33;;
50932;SDS011;36921;49.006;9.292;2023-04-15T00:38:44;6.88;;;3.20;;
50932;SDS011;36921;49.006;9.292;2023-04-15T00:41:10;8.15;;;3.45;;
50932;SDS011;36921;49.006;9.292;2023-04-15T00:43:36;6.15;;;3.08;;
50932;SDS011;36921;49.006;9.292;2023-04-15T00:46:03;7.88;;;3.40;;
50932;SDS011;36921;49.006;9.292;2023-04-15T00:48:29;7.90;;;3.25;;
50932;SDS011;36921;49.006;9.292;2023-04-15T00:50:55;8.07;;;4.07;;
50932;SDS011;36921;49.006;9.292;2023-04-15T00:53:21;7.97;;;3.47;;
50932;SDS011;36921;49.006;9.292;2023-04-15T00:55:46;9.13;;;3.58;;
50932;SDS011;36921;49.006;9.292;2023-04-15T00:58:11;11.27;;;3.97;;
50932;SDS011;36921;49.006;9.292;2023-04-15T01:00:36;7.55;;;3.75;;
50932;SDS011;36921;49.006;9.292;2023-04-15T01:03:12;6.93;;;3.80;;
50932;SDS011;36921;49.006;9.292;2023-04-15T01:05:39;9.23;;;3.33;;
50932;SDS011;36921;49.006;9.292;2023-04-15T01:08:05;6.95;;;3.50;;
50932;SDS011;36921;49.006;9.292;2023-04-15T01:10:30;5.68;;;3.40;;
50932;SDS011;36921;49.006;9.292;2023-04-15T01:12:56;7.65;;;3.42;;
50932;SDS011;36921;49.006;9.292;2023-04-15T01:15:21;8.98;;;2.70;;
50932;SDS011;36921;49.006;9.292;2023-04-15T01:17:47;7.07;;;3.78;;
50932;SDS011;36921;49.006;9.292;2023-04-15T01:20:13;9.60;;;3.25;;
50932;SDS011;36921;49.006;9.292;2023-04-15T01:22:40;7.88;;;3.60;;
50932;SDS011;36921;49.006;9.292;2023-04-15T01:25:08;9.45;;;4.03;;
50932;SDS011;36921;49.006;9.292;2023-04-15T01:27:37;7.97;;;3.80;;
50932;SDS011;36921;49.006;9.292;2023-04-15T01:30:05;7.72;;;3.42;;
50932;SDS011;36921;49.006;9.292;2023-04-15T01:32:31;7.53;;;3.92;;
50932;SDS011;36921;49.006;9.292;2023-04-15T01:34:57;7.32;;;3.88;;
50932;SDS011;36921;49.006;9.292;2023-04-15T01:37:23;10.25;;;4.75;;
50932;SDS011;36921;49.006;9.292;2023-04-15T01:39:48;10.00;;;3.70;;
50932;SDS011;36921;49.006;9.292;2023-04-15T01:42:13;8.20;;;3.88;;
50932;SDS011;36921;49.006;9.292;2023-04-15T01:44:39;7.88;;;4.18;;
50932;SDS011;36921;49.006;9.292;2023-04-15T01:47:04;12.27;;;4.50;;
50932;SDS011;36921;49.006;9.292;2023-04-15T01:49:30;11.40;;;4.63;;
50932;SDS011;36921;49.006;9.292;2023-04-15T01:51:56;7.95;;;4.68;;
50932;SDS011;36921;49.006;9.292;2023-04-15T01:54:21;8.43;;;4.45;;
50932;SDS011;36921;49.006;9.292;2023-04-15T01:56:47;10.48;;;5.03;;
50932;SDS011;36921;49.006;9.292;2023-04-15T01:59:12;11.65;;;4.88;;
50932;SDS011;36921;49.006;9.292;2023-04-15T02:01:37;12.20;;;5.07;;
50932;SDS011;36921;49.006;9.292;2023-04-15T02:04:03;12.00;;;4.97;;
50932;SDS011;36921;49.006;9.292;2023-04-15T02:06:29;8.50;;;4.53;;
50932;SDS011;36921;49.006;9.292;2023-04-15T02:08:54;8.30;;;4.80;;
50932;SDS011;36921;49.006;9.292;2023-04-15T02:11:19;11.07;;;4.35;;
50932;SDS011;36921;49.006;9.292;2023-04-15T02:13:44;9.52;;;4.70;;
50932;SDS011;36921;49.006;9.292;2023-04-15T02:16:17;9.05;;;4.45;;
50932;SDS011;36921;49.006;9.292;2023-04-15T02:18:45;9.48;;;4.50;;
50932;SDS011;36921;49.006;9.292;2023-04-15T02:21:10;7.32;;;4.57;;
50932;SDS011;36921;49.006;9.292;2023-04-15T02:23:36;8.77;;;4.15;;
50932;SDS011;36921;49.006;9.292;2023-04-15T02:26:01;7.63;;;4.35;;
50932;SDS011;36921;49.006;9.292;2023-04-15T02:28:27;7.18;;;4.25;;
50932;SDS011;36921;49.006;9.292;2023-04-15T02:30:52;8.90;;;4.45;;
50932;SDS011;36921;49.006;9.292;2023-04-15T02:33:20;10.38;;;4.60;;
50932;SDS011;36921;49.006;9.292;2023-04-15T02:35:45;6.45;;;4.00;;
50932;SDS011;36921;49.006;9.292;2023-04-15T02:38:11;6.40;;;4.03;;
50932;SDS011;36921;49.006;9.292;2023-04-15T02:40:38;6.55;;;4.15;;
50932;SDS011;36921;49.006;9.292;2023-04-15T02:43:03;8.40;;;4.25;;
50932;SDS011;36921;49.006;9.292;2023-04-15T02:45:30;10.88;;;5.22;;
50932;SDS011;36921;49.006;9.292;2023-04-15T02:47:56;9.82;;;4.90;;
50932;SDS011;36921;49.006;9.292;2023-04-15T02:50:21;7.20;;;4.22;;
50932;SDS011;36921;49.006;9.292;2023-04-15T02:52:47;10.57;;;4.50;;
50932;SDS011;36921;49.006;9.292;2023-04-15T02:55:12;10.80;;;4.53;;
50932;SDS011;36921;49.006;9.292;2023-04-15T02:57:38;9.18;;;4.65;;
50932;SDS011;36921;49.006;9.292;2023-04-15T03:00:04;8.00;;;4.57;;
50932;SDS011;36921;49.006;9.292;2023-04-15T03:02:34;7.97;;;3.97;;
50932;SDS011;36921;49.006;9.292;2023-04-15T03:05:00;6.47;;;3.90;;
50932;SDS011;36921;49.006;9.292;2023-04-15T03:07:26;9.88;;;4.50;;
50932;SDS011;36921;49.006;9.292;2023-04-15T03:09:51;7.72;;;4.63;;
50932;SDS011;36921;49.006;9.292;2023-04-15T03:12:17;9.68;;;4.75;;
50932;SDS011;36921;49.006;9.292;2023-04-15T03:14:42;10.32;;;3.90;;
50932;SDS011;36921;49.006;9.292;2023-04-15T03:17:07;7.30;;;3.97;;
50932;SDS011;36921;49.006;9.292;2023-04-15T03:19:32;6.68;;;3.85;;
50932;SDS011;36921;49.006;9.292;2023-04-15T03:21:58;6.50;;;3.88;;
50932;SDS011;36921;49.006;9.292;2023-04-15T03:24:23;9.35;;;4.63;;
50932;SDS011;36921;49.006;9.292;2023-04-15T03:26:48;9.57;;;4.50;;
50932;SDS011;36921;49.006;9.292;2023-04-15T03:29:14;7.32;;;4.55;;
50932;SDS011;36921;49.006;9.292;2023-04-15T03:31:40;9.18;;;4.57;;
50932;SDS011;36921;49.006;9.292;2023-04-15T03:34:05;8.57;;;4.60;;
50932;SDS011;36921;49.006;9.292;2023-04-15T03:36:30;9.93;;;4.60;;
50932;SDS011;36921;49.006;9.292;2023-04-15T03:38:57;6.82;;;4.60;;
50932;SDS011;36921;49.006;9.292;2023-04-15T03:41:22;9.23;;;4.90;;
50932;SDS011;36921;49.006;9.292;2023-04-15T03:43:48;9.25;;;4.53;;
50932;SDS011;36921;49.006;9.292;2023-04-15T03:46:15;8.60;;;4.43;;
50932;SDS011;36921;49.006;9.292;2023-04-15T03:48:41;8.43;;;4.38;;
50932;SDS011;36921;49.006;9.292;2023-04-15T03:51:06;7.15;;;3.85;;
50932;SDS011;36921;49.006;9.292;2023-04-15T03:53:32;10.25;;;5.03;;
50932;SDS011;36921;49.006;9.292;2023-04-15T03:55:57;9.95;;;4.82;;
50932;SDS011;36921;49.006;9.292;2023-04-15T03:58:22;8.50;;;4.28;;
50932;SDS011;36921;49.006;9.292;2023-04-15T04:00:48;12.45;;;5.43;;
50932;SDS011;36921;49.006;9.292;2023-04-15T04:03:13;8.73;;;4.90;;
50932;SDS011;36921;49.006;9.292;2023-04-15T04:05:38;10.23;;;4.75;;
50932;SDS011;36921;49.006;9.292;2023-04-15T04:08:05;9.02;;;4.38;;
50932;SDS011;36921;49.006;9.292;2023-04-15T04:10:31;8.05;;;4.03;;
50932;SDS011;36921;49.006;9.292;2023-04-15T04:12:56;8.70;;;3.90;;
50932;SDS011;36921;49.006;9.292;2023-04-15T04:15:21;9.02;;;3.90;;
50932;SDS011;36921;49.006;9.292;2023-04-15T04:17:47;8.20;;;4.47;;
50932;SDS011;36921;49.006;9.292;2023-04-15T04:20:12;8.05;;;4.63;;
50932;SDS011;36921;49.006;9.292;2023-04-15T04:22:38;7.43;;;4.15;;
50932;SDS011;36921;49.006;9.292;2023-04-15T04:25:04;6.18;;;3.80;;
50932;SDS011;36921;49.006;9.292;2023-04-15T04:27:31;11.38;;;5.32;;
50932;SDS011;36921;49.006;9.292;2023-04-15T04:29:56;8.30;;;4.95;;
50932;SDS011;36921;49.006;9.292;2023-04-15T04:32:21;8.48;;;4.78;;
50932;SDS011;36921;49.006;9.292;2023-04-15T04:34:46;11.50;;;4.93;;
50932;SDS011;36921;49.006;9.292;2023-04-15T04:37:12;12.20;;;4.93;;
50932;SDS011;36921;49.006;9.292;2023-04-15T04:39:38;7.63;;;4.47;;
50932;SDS011;36921;49.006;9.292;2023-04-15T04:42:04;8.65;;;5.00;;
50932;SDS011;36921;49.006;9.292;2023-04-15T04:44:29;10.07;;;5.10;;
50932;SDS011;36921;49.006;9.292;2023-04-15T04:46:55;10.15;;;4.78;;
50932;SDS011;36921;49.006;9.292;2023-04-15T04:49:20;11.02;;;4.68;;
50932;SDS011;36921;49.006;9.292;2023-04-15T04:51:45;11.55;;;4.75;;
50932;SDS011;36921;49.006;9.292;2023-04-15T04:54:12;9.68;;;5.15;;
50932;SDS011;36921;49.006;9.292;2023-04-15T04:56:37;12.35;;;4.38;;
50932;SDS011;36921;49.006;9.292;2023-04-15T04:59:03;10.65;;;4.60;;
50932;SDS011;36921;49.006;9.292;2023-04-15T05:01:29;10.65;;;4.53;;
50932;SDS011;36921;49.006;9.292;2023-04-15T05:06:41;10.40;;;4.53;;
50932;SDS011;36921;49.006;9.292;2023-04-15T05:09:07;8.50;;;4.22;;
50932;SDS011;36921;49.006;9.292;2023-04-15T05:11:32;7.13;;;3.97;;
50932;SDS011;36921;49.006;9.292;2023-04-15T05:13:57;9.38;;;3.95;;
50932;SDS011;36921;49.006;9.292;2023-04-15T05:16:25;7.90;;;4.25;;
50932;SDS011;36921;49.006;9.292;2023-04-15T05:18:50;9.20;;;3.83;;
50932;SDS011;36921;49.006;9.292;2023-04-15T05:21:16;6.28;;;4.03;;
50932;SDS011;36921;49.006;9.292;2023-04-15T05:23:41;8.05;;;5.32;;
50932;SDS011;36921;49.006;9.292;2023-04-15T05:26:07;9.48;;;4.90;;
50932;SDS011;36921;49.006;9.292;2023-04-15T05:28:32;8.48;;;4.90;;
50932;SDS011;36921;49.006;9.292;2023-04-15T05:30:57;12.07;;;4.75;;
50932;SDS011;36921;49.006;9.292;2023-04-15T05:33:22;7.38;;;4.53;;
50932;SDS011;36921;49.006;9.292;2023-04-15T05:35:48;7.60;;;4.40;;
50932;SDS011;36921;49.006;9.292;2023-04-15T05:38:13;9.10;;;4.45;;
50932;SDS011;36921;49.006;9.292;2023-04-15T05:40:38;13.68;;;4.20;;
50932;SDS011;36921;49.006;9.292;2023-04-15T05:43:13;7.38;;;4.53;;
50932;SDS011;36921;49.006;9.292;2023-04-15T05:45:38;10.63;;;5.13;;
50932;SDS011;36921;49.006;9.292;2023-04-15T05:48:04;7.80;;;4.63;;
50932;SDS011;36921;49.006;9.292;2023-04-15T05:50:29;8.05;;;4.40;;
50932;SDS011;36921;49.006;9.292;2023-04-15T05:52:54;13.82;;;4.55;;
50932;SDS011;36921;49.006;9.292;2023-04-15T05:55:20;9.65;;;3.95;;
50932;SDS011;36921;49.006;9.292;2023-04-15T05:57:46;7.18;;;4.40;;
50932;SDS011;36921;49.006;9.292;2023-04-15T06:00:11;6.65;;;3.65;;
50932;SDS011;36921;49.006;9.292;2023-04-15T06:02:37;7.55;;;4.50;;
50932;SDS011;36921;49.006;9.292;2023-04-15T06:05:03;8.55;;;3.97;;
50932;SDS011;36921;49.006;9.292;2023-04-15T06:07:33;5.70;;;3.45;;
50932;SDS011;36921;49.006;9.292;2023-04-15T06:09:59;32.72;;;12.60;;
50932;SDS011;36921;49.006;9.292;2023-04-15T06:12:24;60.20;;;23.05;;
50932;SDS011;36921;49.006;9.292;2023-04-15T06:14:49;58.90;;;22.73;;
50932;SDS011;36921;49.006;9.292;2023-04-15T06:17:15;43.53;;;18.02;;
50932;SDS011;36921;49.006;9.292;2023-04-15T06:19:42;17.45;;;8.30;;
50932;SDS011;36921;49.006;9.292;2023-04-15T06:22:07;19.38;;;8.20;;
50932;SDS011;36921;49.006;9.292;2023-04-15T06:24:33;21.73;;;7.80;;
50932;SDS011;36921;49.006;9.292;2023-04-15T06:26:58;18.30;;;8.00;;
50932;SDS011;36921;49.006;9.292;2023-04-15T06:29:24;13.40;;;6.95;;
50932;SDS011;36921;49.006;9.292;2023-04-15T06:31:49;15.80;;;7.40;;
50932;SDS011;36921;49.006;9.292;2023-04-15T06:34:15;16.70;;;5.97;;
50932;SDS011;36921;49.006;9.292;2023-04-15T06:36:41;13.73;;;6.07;;
50932;SDS011;36921;49.006;9.292;2023-04-15T06:39:06;11.07;;;5.15;;
50932;SDS011;36921;49.006;9.292;2023-04-15T06:41:31;9.40;;;4.53;;
50932;SDS011;36921;49.006;9.292;2023-04-15T06:43:57;10.35;;;4.20;;
50932;SDS011;36921;49.006;9.292;2023-04-15T06:46:22;8.30;;;4.00;;
50932;SDS011;36921;49.006;9.292;2023-04-15T06:48:47;7.13;;;3.30;;
50932;SDS011;36921;49.006;9.292;2023-04-15T06:51:13;7.25;;;3.42;;
50932;SDS011;36921;49.006;9.292;2023-04-15T06:53:38;9.68;;;4.68;;
50932;SDS011;36921;49.006;9.292;2023-04-15T06:56:06;7.85;;;4.35;;
50932;SDS011;36921;49.006;9.292;2023-04-15T06:58:33;6.65;;;4.00;;
50932;SDS011;36921;49.006;9.292;2023-04-15T07:00:59;5.28;;;3.72;;
50932;SDS011;36921;49.006;9.292;2023-04-15T07:06:27;4.53;;;3.40;;
50932;SDS011;36921;49.006;9.292;2023-04-15T07:08:52;8.55;;;4.03;;
50932;SDS011;36921;49.006;9.292;2023-04-15T07:11:18;8.40;;;3.58;;
50932;SDS011;36921;49.006;9.292;2023-04-15T07:13:45;6.18;;;3.28;;
50932;SDS011;36921;49.006;9.292;2023-04-15T07:16:10;6.95;;;3.50;;
50932;SDS011;36921;49.006;9.292;2023-04-15T07:18:35;7.10;;;3.13;;
50932;SDS011;36921;49.006;9.292;2023-04-15T07:21:01;9.15;;;3.65;;
50932;SDS011;36921;49.006;9.292;2023-04-15T07:23:32;7.55;;;2.90;;
50932;SDS011;36921;49.006;9.292;2023-04-15T07:25:58;9.32;;;3.17;;
50932;SDS011;36921;49.006;9.292;2023-04-15T07:28:23;10.35;;;3.20;;
50932;SDS011;36921;49.006;9.292;2023-04-15T07:30:48;9.77;;;2.92;;
50932;SDS011;36921;49.006;9.292;2023-04-15T07:33:14;5.65;;;2.92;;
50932;SDS011;36921;49.006;9.292;2023-04-15T07:35:39;4.00;;;2.58;;
50932;SDS011;36921;49.006;9.292;2023-04-15T07:38:05;5.20;;;2.60;;
50932;SDS011;36921;49.006;9.292;2023-04-15T07:40:30;7.07;;;2.92;;
50932;SDS011;36921;49.006;9.292;2023-04-15T07:42:56;5.22;;;3.17;;
50932;SDS011;36921;49.006;9.292;2023-04-15T07:45:22;5.35;;;3.25;;
50932;SDS011;36921;49.006;9.292;2023-04-15T07:47:47;8.90;;;3.08;;
50932;SDS011;36921;49.006;9.292;2023-04-15T07:50:14;6.65;;;3.10;;
50932;SDS011;36921;49.006;9.292;2023-04-15T07:52:40;8.43;;;2.97;;
50932;SDS011;36921;49.006;9.292;2023-04-15T07:55:06;4.47;;;2.80;;
50932;SDS011;36921;49.006;9.292;2023-04-15T07:57:32;10.80;;;3.30;;
50932;SDS011;36921;49.006;9.292;2023-04-15T07:59:59;6.38;;;3.55;;
50932;SDS011;36921;49.006;9.292;2023-04-15T08:02:24;10.27;;;3.55;;
50932;SDS011;36921;49.006;9.292;2023-04-15T08:04:50;5.95;;;3.08;;
50932;SDS011;36921;49.006;9.292;2023-04-15T08:07:16;6.65;;;3.30;;
50932;SDS011;36921;49.006;9.292;2023-04-15T08:09:42;12.63;;;3.88;;
50932;SDS011;36921;49.006;9.292;2023-04-15T08:12:07;7.78;;;3.20;;
50932;SDS011;36921;49.006;9.292;2023-04-15T08:14:36;5.72;;;3.28;;
50932;SDS011;36921;49.006;9.292;2023-04-15T08:17:01;5.25;;;3.03;;
50932;SDS011;36921;49.006;9.292;2023-04-15T08:19:27;5.47;;;3.05;;
50932;SDS011;36921;49.006;9.292;2023-04-15T08:21:52;7.75;;;3.30;;
50932;SDS011;36921;49.006;9.292;2023-04-15T08:24:17;5.85;;;2.60;;
50932;SDS011;36921;49.006;9.292;2023-04-15T08:26:43;8.75;;;3.25;;
50932;SDS011;36921;49.006;9.292;2023-04-15T08:29:08;7.60;;;3.33;;
50932;SDS011;36921;49.006;9.292;2023-04-15T08:31:34;7.90;;;3.35;;
50932;SDS011;36921;49.006;9.292;2023-04-15T08:33:59;8.20;;;3.30;;
50932;SDS011;36921;49.006;9.292;2023-04-15T08:36:25;6.20;;;3.15;;
50932;SDS011;36921;49.006;9.292;2023-04-15T08:38:51;10.50;;;3.15;;
50932;SDS011;36921;49.006;9.292;2023-04-15T08:41:20;6.47;;;2.88;;
50932;SDS011;36921;49.006;9.292;2023-04-15T08:43:51;7.32;;;2.70;;
50932;SDS011;36921;49.006;9.292;2023-04-15T08:46:18;6.18;;;3.20;;
50932;SDS011;36921;49.006;9.292;2023-04-15T08:48:45;7.55;;;3.38;;
50932;SDS011;36921;49.006;9.292;2023-04-15T08:51:12;9.07;;;3.55;;
50932;SDS011;36921;49.006;9.292;2023-04-15T08:53:40;4.93;;;2.65;;
50932;SDS011;36921;49.006;9.292;2023-04-15T08:56:06;6.93;;;3.13;;
50932;SDS011;36921;49.006;9.292;2023-04-15T08:58:34;8.05;;;3.58;;
50932;SDS011;36921;49.006;9.292;2023-04-15T09:01:00;7.00;;;3.30;;
50932;SDS011;36921;49.006;9.292;2023-04-15T09:03:25;6.15;;;2.90;;
50932;SDS011;36921;49.006;9.292;2023-04-15T09:05:52;8.90;;;3.25;;
50932;SDS011;36921;49.006;9.292;2023-04-15T09:08:18;5.85;;;3.15;;
50932;SDS011;36921;49.006;9.292;2023-04-15T09:10:44;6.72;;;2.97;;
50932;SDS011;36921;49.006;9.292;2023-04-15T09:13:09;5.00;;;3.10;;
50932;SDS011;36921;49.006;9.292;2023-04-15T09:15:37;7.95;;;2.83;;
50932;SDS011;36921;49.006;9.292;2023-04-15T09:18:02;3.33;;;2.15;;
50932;SDS011;36921;49.006;9.292;2023-04-15T09:20:28;5.22;;;2.25;;
50932;SDS011;36921;49.006;9.292;2023-04-15T09:22:54;6.07;;;2.22;;
50932;SDS011;36921;49.006;9.292;2023-04-15T09:27:55;4.38;;;1.70;;
50932;SDS011;36921;49.006;9.292;2023-04-15T09:30:21;4.13;;;2.00;;
50932;SDS011;36921;49.006;9.292;2023-04-15T09:32:50;5.13;;;1.98;;
50932;SDS011;36921;49.006;9.292;2023-04-15T09:35:17;4.40;;;1.83;;
50932;SDS011;36921;49.006;9.292;2023-04-15T09:37:44;2.63;;;1.40;;
50932;SDS011;36921;49.006;9.292;2023-04-15T09:40:10;3.20;;;1.50;;
50932;SDS011;36921;49.006;9.292;2023-04-15T09:42:36;3.83;;;1.50;;
50932;SDS011;36921;49.006;9.292;2023-04-15T09:45:18;4.05;;;1.50;;
50932;SDS011;36921;49.006;9.292;2023-04-15T09:47:43;2.80;;;1.40;;
50932;SDS011;36921;49.006;9.292;2023-04-15T09:50:09;4.45;;;1.67;;
50932;SDS011;36921;49.006;9.292;2023-04-15T09:52:39;3.78;;;1.52;;
50932;SDS011;36921;49.006;9.292;2023-04-15T09:55:07;4.70;;;1.50;;
50932;SDS011;36921;49.006;9.292;2023-04-15T09:57:33;2.42;;;1.30;;
50932;SDS011;36921;49.006;9.292;2023-04-15T10:00:00;3.55;;;1.60;;
50932;SDS011;36921;49.006;9.292;2023-04-15T10:02:27;4.25;;;1.80;;
50932;SDS011;36921;49.006;9.292;2023-04-15T10:04:54;4.15;;;1.55;;
50932;SDS011;36921;49.006;9.292;2023-04-15T10:07:20;3.38;;;1.88;;
50932;SDS011;36921;49.006;9.292;2023-04-15T10:09:47;2.00;;;1.33;;
50932;SDS011;36921;49.006;9.292;2023-04-15T10:12:13;5.35;;;1.60;;
50932;SDS011;36921;49.006;9.292;2023-04-15T10:14:40;3.40;;;1.50;;
50932;SDS011;36921;49.006;9.292;2023-04-15T10:17:07;3.03;;;1.23;;
50932;SDS011;36921;49.006;9.292;2023-04-15T10:19:37;5.28;;;1.10;;
50932;SDS011;36921;49.006;9.292;2023-04-15T10:22:03;4.28;;;1.50;;
50932;SDS011;36921;49.006;9.292;2023-04-15T10:24:30;5.28;;;1.50;;
50932;SDS011;36921;49.006;9.292;2023-04-15T10:26:56;3.45;;;1.33;;
50932;SDS011;36921;49.006;9.292;2023-04-15T10:29:23;4.07;;;1.10;;
50932;SDS011;36921;49.006;9.292;2023-04-15T10:31:51;2.65;;;1.20;;
50932;SDS011;36921;49.006;9.292;2023-04-15T10:34:19;5.57;;;1.40;;
50932;SDS011;36921;49.006;9.292;2023-04-15T10:36:45;4.55;;;1.15;;
50932;SDS011;36921;49.006;9.292;2023-04-15T10:42:05;3.35;;;1.50;;
50932;SDS011;36921;49.006;9.292;2023-04-15T10:44:34;2.35;;;1.20;;
50932;SDS011;36921;49.006;9.292;2023-04-15T10:47:03;4.55;;;1.50;;
50932;SDS011;36921;49.006;9.292;2023-04-15T10:49:34;4.53;;;1.30;;
50932;SDS011;36921;49.006;9.292;2023-04-15T10:52:07;6.05;;;1.48;;
50932;SDS011;36921;49.006;9.292;2023-04-15T10:54:33;3.47;;;1.45;;
50932;SDS011;36921;49.006;9.292;2023-04-15T10:59:28;1.90;;;1.40;;
50932;SDS011;36921;49.006;9.292;2023-04-15T11:01:55;4.03;;;1.30;;
50932;SDS011;36921;49.006;9.292;2023-04-15T11:12:58;3.63;;;1.42;;
50932;SDS011;36921;49.006;9.292;2023-04-15T11:18:14;4.88;;;1.90;;
50932;SDS011;36921;49.006;9.292;2023-04-15T11:20:48;4.05;;;2.25;;
50932;SDS011;36921;49.006;9.292;2023-04-15T11:23:15;6.88;;;1.90;;
50932;SDS011;36921;49.006;9.292;2023-04-15T11:25:51;6.68;;;2.00;;
50932;SDS011;36921;49.006;9.292;2023-04-15T11:28:19;6.63;;;1.90;;
50932;SDS011;36921;49.006;9.292;2023-04-15T11:30:44;3.42;;;1.60;;
50932;SDS011;36921;49.006;9.292;2023-04-15T11:33:10;2.13;;;1.60;;
50932;SDS011;36921;49.006;9.292;2023-04-15T11:35:36;3.42;;;1.92;;
50932;SDS011;36921;49.006;9.292;2023-04-15T11:38:09;6.38;;;1.73;;
50932;SDS011;36921;49.006;9.292;2023-04-15T11:40:36;5.43;;;1.98;;
50932;SDS011;36921;49.006;9.292;2023-04-15T11:43:09;3.35;;;1.70;;
50932;SDS011;36921;49.006;9.292;2023-04-15T11:45:37;2.92;;;2.00;;
50932;SDS011;36921;49.006;9.292;2023-04-15T11:48:12;5.43;;;1.70;;
50932;SDS011;36921;49.006;9.292;2023-04-15T11:50:38;3.88;;;1.67;;
50932;SDS011;36921;49.006;9.292;2023-04-15T11:53:05;5.75;;;1.65;;
50932;SDS011;36921;49.006;9.292;2023-04-15T11:58:17;3.25;;;1.70;;
50932;SDS011;36921;49.006;9.292;2023-04-15T12:00:55;3.00;;;1.40;;
50932;SDS011;36921;49.006;9.292;2023-04-15T12:03:23;3.75;;;1.30;;
50932;SDS011;36921;49.006;9.292;2023-04-15T12:08:58;1.52;;;1.05;;
50932;SDS011;36921;49.006;9.292;2023-04-15T12:11:35;1.95;;;0.90;;
50932;SDS011;36921;49.006;9.292;2023-04-15T12:14:05;2.75;;;1.30;;
50932;SDS011;36921;49.006;9.292;2023-04-15T12:16:41;3.05;;;1.30;;
50932;SDS011;36921;49.006;9.292;2023-04-15T12:19:10;4.13;;;1.20;;
50932;SDS011;36921;49.006;9.292;2023-04-15T12:21:37;4.28;;;1.10;;
50932;SDS011;36921;49.006;9.292;2023-04-15T12:24:05;3.13;;;0.80;;
50932;SDS011;36921;49.006;9.292;2023-04-15T12:26:34;4.00;;;1.02;;
50932;SDS011;36921;49.006;9.292;2023-04-15T12:29:08;2.35;;;0.80;;
50932;SDS011;36921;49.006;9.292;2023-04-15T12:31:35;5.22;;;1.00;;
50932;SDS011;36921;49.006;9.292;2023-04-15T12:34:01;1.42;;;0.70;;
50932;SDS011;36921;49.006;9.292;2023-04-15T12:36:27;3.33;;;0.93;;
50932;SDS011;36921;49.006;9.292;2023-04-15T12:39:04;1.05;;;0.60;;
50932;SDS011;36921;49.006;9.292;2023-04-15T12:41:30;2.47;;;0.75;;
50932;SDS011;36921;49.006;9.292;2023-04-15T12:43:56;3.15;;;0.93;;
50932;SDS011;36921;49.006;9.292;2023-04-15T12:46:21;2.00;;;0.70;;
50932;SDS011;36921;49.006;9.292;2023-04-15T12:48:47;2.65;;;0.68;;
50932;SDS011;36921;49.006;9.292;2023-04-15T12:51:13;2.83;;;0.73;;
50932;SDS011;36921;49.006;9.292;2023-04-15T12:53:38;0.98;;;0.47;;
50932;SDS011;36921;49.006;9.292;2023-04-15T12:56:04;1.00;;;0.50;;
50932;SDS011;36921;49.006;9.292;2023-04-15T12:58:30;1.92;;;0.60;;
50932;SDS011;36921;49.006;9.292;2023-04-15T13:00:56;1.88;;;0.80;;
50932;SDS011;36921;49.006;9.292;2023-04-15T13:03:21;2.50;;;0.60;;
50932;SDS011;36921;49.006;9.292;2023-04-15T13:05:47;2.00;;;0.90;;
50932;SDS011;36921;49.006;9.292;2023-04-15T13:08:12;2.33;;;1.10;;
50932;SDS011;36921;49.006;9.292;2023-04-15T13:10:37;2.85;;;0.80;;
50932;SDS011;36921;49.006;9.292;2023-04-15T13:13:03;2.40;;;1.30;;
50932;SDS011;36921;49.006;9.292;2023-04-15T13:15:29;2.75;;;1.10;;
50932;SDS011;36921;49.006;9.292;2023-04-15T13:17:56;3.83;;;1.35;;
50932;SDS011;36921;49.006;9.292;2023-04-15T13:20:21;4.93;;;2.20;;
50932;SDS011;36921;49.006;9.292;2023-04-15T13:22:49;3.40;;;1.00;;
50932;SDS011;36921;49.006;9.292;2023-04-15T13:25:16;3.45;;;0.82;;
50932;SDS011;36921;49.006;9.292;2023-04-15T13:27:41;2.90;;;0.70;;
50932;SDS011;36921;49.006;9.292;2023-04-15T13:30:07;2.78;;;0.57;;
50932;SDS011;36921;49.006;9.292;2023-04-15T13:32:33;0.90;;;0.57;;
50932;SDS011;36921;49.006;9.292;2023-04-15T13:34:58;1.65;;;0.50;;
50932;SDS011;36921;49.006;9.292;2023-04-15T13:37:27;1.40;;;0.60;;
50932;SDS011;36921;49.006;9.292;2023-04-15T13:39:54;3.55;;;0.73;;
50932;SDS011;36921;49.006;9.292;2023-04-15T13:42:20;3.35;;;0.57;;
50932;SDS011;36921;49.006;9.292;2023-04-15T13:44:46;2.38;;;0.60;;
50932;SDS011;36921;49.006;9.292;2023-04-15T13:47:12;0.68;;;0.40;;
50932;SDS011;36921;49.006;9.292;2023-04-15T13:49:40;1.58;;;0.47;;
50932;SDS011;36921;49.006;9.292;2023-04-15T13:52:05;0.73;;;0.47;;
50932;SDS011;36921;49.006;9.292;2023-04-15T13:54:31;2.33;;;0.60;;
50932;SDS011;36921;49.006;9.292;2023-04-15T13:56:59;1.45;;;0.50;;
50932;SDS011;36921;49.006;9.292;2023-04-15T13:59:26;1.98;;;0.60;;
50932;SDS011;36921;49.006;9.292;2023-04-15T14:01:51;0.93;;;0.47;;
50932;SDS011;36921;49.006;9.292;2023-04-15T14:04:17;2.00;;;0.70;;
50932;SDS011;36921;49.006;9.292;2023-04-15T14:06:42;1.23;;;0.50;;
50932;SDS011;36921;49.006;9.292;2023-04-15T14:09:08;1.13;;;0.55;;
50932;SDS011;36921;49.006;9.292;2023-04-15T14:11:34;2.03;;;0.50;;
50932;SDS011;36921;49.006;9.292;2023-04-15T14:14:00;1.52;;;0.50;;
50932;SDS011;36921;49.006;9.292;2023-04-15T14:21:30;3.20;;;0.90;;
50932;SDS011;36921;49.006;9.292;2023-04-15T14:23:56;2.20;;;0.70;;
50932;SDS011;36921;49.006;9.292;2023-04-15T14:26:22;2.83;;;0.63;;
50932;SDS011;36921;49.006;9.292;2023-04-15T14:28:47;4.32;;;0.70;;
50932;SDS011;36921;49.006;9.292;2023-04-15T14:31:13;2.50;;;0.75;;
50932;SDS011;36921;49.006;9.292;2023-04-15T14:33:38;2.20;;;0.80;;
50932;SDS011;36921;49.006;9.292;2023-04-15T14:36:04;3.78;;;0.80;;
50932;SDS011;36921;49.006;9.292;2023-04-15T14:38:30;1.63;;;0.73;;
50932;SDS011;36921;49.006;9.292;2023-04-15T14:41:02;2.97;;;0.90;;
50932;SDS011;36921;49.006;9.292;2023-04-15T14:43:36;2.33;;;1.08;;
50932;SDS011;36921;49.006;9.292;2023-04-15T14:46:01;0.90;;;0.60;;
50932;SDS011;36921;49.006;9.292;2023-04-15T14:48:27;2.92;;;0.90;;
50932;SDS011;36921;49.006;9.292;2023-04-15T14:50:53;2.33;;;0.80;;
50932;SDS011;36921;49.006;9.292;2023-04-15T14:53:18;2.65;;;0.80;;
50932;SDS011;36921;49.006;9.292;2023-04-15T14:55:44;2.33;;;0.85;;
50932;SDS011;36921;49.006;9.292;2023-04-15T14:58:10;1.08;;;0.52;;
50932;SDS011;36921;49.006;9.292;2023-04-15T15:00:37;1.48;;;0.65;;
50932;SDS011;36921;49.006;9.292;2023-04-15T15:03:05;2.50;;;0.90;;
50932;SDS011;36921;49.006;9.292;2023-04-15T15:05:37;2.00;;;0.80;;
50932;SDS011;36921;49.006;9.292;2023-04-15T15:08:04;4.43;;;1.02;;
50932;SDS011;36921;49.006;9.292;2023-04-15T15:10:31;1.23;;;0.88;;
50932;SDS011;36921;49.006;9.292;2023-04-15T15:12:56;1.73;;;0.60;;
50932;SDS011;36921;49.006;9.292;2023-04-15T15:15:22;1.17;;;0.80;;
50932;SDS011;36921;49.006;9.292;2023-04-15T15:17:47;1.40;;;0.63;;